Time;durP1;ratioP1;P1;durP2;ratioP2;P2;SDS_P1;SDS_P2;PMS_P1;PMS_P2;Temp;Humidity;BMP_temperature;BMP_pressure;BME280_temperature;BME280_humidity;BME280_pressure;Samples;Min_cycle;Max_cycle;Signal;HPM_P1;HPM_P2
2021/05/31 00:01:12;;;;;;;23.57;17.27;;;13.30;99.90;;;;;;5083707;28;20293;-77
2021/05/31 00:03:39;;;;;;;22.80;16.93;;;13.30;99.90;;;;;;5094775;28;20198;-77
2021/05/31 00:06:06;;;;;;;24.93;17.77;;;13.20;99.90;;;;;;5080189;28;20280;-76
2021/05/31 00:08:33;;;;;;;24.30;18.03;;;13.20;99.90;;;;;;5085627;28;20225;-75
2021/05/31 00:11:00;;;;;;;24.83;17.23;;;13.20;99.90;;;;;;5089976;28;20255;-77
2021/05/31 00:13:27;;;;;;;23.83;17.33;;;13.20;99.90;;;;;;5089487;28;20221;-75
2021/05/31 00:15:54;;;;;;;24.63;17.23;;;13.20;99.90;;;;;;5087960;28;20224;-77
2021/05/31 00:18:21;;;;;;;25.37;17.23;;;13.30;99.90;;;;;;5094069;28;20204;-77
2021/05/31 00:20:49;;;;;;;23.50;17.17;;;13.40;99.90;;;;;;5076157;28;20329;-76
2021/05/31 00:23:17;;;;;;;23.37;17.80;;;13.30;99.90;;;;;;5074479;28;20194;-77
2021/05/31 00:25:44;;;;;;;24.93;17.60;;;13.20;99.90;;;;;;5077682;28;20578;-76
2021/05/31 00:28:12;;;;;;;24.37;16.50;;;13.30;99.90;;;;;;5081382;28;20251;-75
2021/05/31 00:30:39;;;;;;;23.97;17.47;;;13.30;99.90;;;;;;5074327;28;20200;-77
2021/05/31 00:33:06;;;;;;;24.47;17.60;;;13.20;99.90;;;;;;5081684;28;20241;-77
2021/05/31 00:35:32;;;;;;;23.20;16.90;;;13.20;99.90;;;;;;5093983;28;20292;-77
2021/05/31 00:37:59;;;;;;;20.80;16.93;;;13.30;99.90;;;;;;5094265;28;20320;-77
2021/05/31 00:40:27;;;;;;;22.03;16.00;;;13.20;99.90;;;;;;5090126;28;20262;-77
2021/05/31 00:42:53;;;;;;;22.33;16.20;;;13.20;99.90;;;;;;5079057;28;20275;-77
2021/05/31 00:45:21;;;;;;;21.50;16.60;;;13.20;99.90;;;;;;5093626;28;20229;-77
2021/05/31 00:47:48;;;;;;;19.67;15.37;;;13.10;99.90;;;;;;5094073;28;20270;-77
2021/05/31 00:50:15;;;;;;;23.50;16.43;;;13.10;99.90;;;;;;5094089;28;20296;-77
2021/05/31 00:52:41;;;;;;;23.87;16.70;;;13.00;99.90;;;;;;5093755;28;20623;-77
2021/05/31 00:55:09;;;;;;;24.00;16.03;;;13.00;99.90;;;;;;5093417;28;20315;-76
2021/05/31 00:57:36;;;;;;;22.40;16.20;;;13.20;99.90;;;;;;5093827;28;20619;-77
2021/05/31 01:00:05;;;;;;;24.17;15.80;;;13.20;99.90;;;;;;5093926;28;20241;-77
2021/05/31 01:02:31;;;;;;;21.47;15.57;;;13.20;99.90;;;;;;5093312;28;20235;-77
2021/05/31 01:04:57;;;;;;;20.27;15.37;;;13.20;99.90;;;;;;5093227;28;20244;-77
2021/05/31 01:07:31;;;;;;;22.47;15.13;;;13.10;99.90;;;;;;5093956;28;20292;-77
2021/05/31 01:10:03;;;;;;;20.93;15.27;;;13.30;99.90;;;;;;5093554;28;20197;-75
2021/05/31 01:12:32;;;;;;;20.57;15.53;;;13.30;99.90;;;;;;5073647;28;20206;-77
2021/05/31 01:15:13;;;;;;;19.90;15.07;;;13.30;99.90;;;;;;5073163;28;20315;-77
2021/05/31 01:17:47;;;;;;;23.03;14.57;;;13.20;99.90;;;;;;5072540;28;20319;-77
2021/05/31 01:20:38;;;;;;;20.37;14.70;;;13.10;99.90;;;;;;5072291;28;20467;-77
2021/05/31 01:23:09;;;;;;;20.20;14.67;;;13.20;99.90;;;;;;5072237;28;20278;-77
2021/05/31 01:25:44;;;;;;;21.07;15.13;;;13.20;99.90;;;;;;5072385;28;20243;-77
2021/05/31 01:28:44;;;;;;;17.93;14.73;;;13.10;99.90;;;;;;5074436;28;20304;-76
2021/05/31 01:31:14;;;;;;;19.53;13.87;;;13.10;99.90;;;;;;5076577;28;20201;-77
2021/05/31 01:33:40;;;;;;;20.87;14.63;;;13.10;99.90;;;;;;5078567;28;20225;-77
2021/05/31 01:36:08;;;;;;;18.50;14.33;;;13.10;99.90;;;;;;5089967;28;20352;-77
2021/05/31 01:38:38;;;;;;;18.03;13.80;;;13.10;99.90;;;;;;5093088;28;20273;-77
2021/05/31 01:41:06;;;;;;;19.33;13.67;;;13.10;99.90;;;;;;5093130;28;20197;-77
2021/05/31 01:43:33;;;;;;;17.43;14.00;;;13.10;99.90;;;;;;5092831;28;20689;-77
2021/05/31 01:46:01;;;;;;;18.33;14.07;;;13.00;99.90;;;;;;5092992;28;20295;-77
2021/05/31 01:48:30;;;;;;;19.33;14.70;;;13.00;99.90;;;;;;5092527;28;20201;-76
2021/05/31 01:50:58;;;;;;;18.33;14.07;;;12.90;99.90;;;;;;5092970;28;20203;-77
2021/05/31 01:53:25;;;;;;;19.90;13.80;;;12.90;99.90;;;;;;5092488;28;20636;-76
2021/05/31 01:55:52;;;;;;;20.77;13.87;;;12.80;99.90;;;;;;5092544;28;20240;-77
2021/05/31 01:58:19;;;;;;;23.33;14.87;;;12.80;99.90;;;;;;5092656;28;20240;-77
2021/05/31 02:00:46;;;;;;;17.47;13.93;;;12.80;99.90;;;;;;5092667;28;20287;-76
2021/05/31 02:03:12;;;;;;;20.67;14.63;;;12.80;99.90;;;;;;5092152;28;20679;-77
2021/05/31 02:05:40;;;;;;;18.97;14.20;;;12.70;99.90;;;;;;5092867;28;20288;-76
2021/05/31 02:08:07;;;;;;;20.20;14.63;;;12.60;99.90;;;;;;5092026;28;20243;-77
2021/05/31 02:10:33;;;;;;;17.53;14.07;;;12.60;99.90;;;;;;5092449;28;20259;-76
2021/05/31 02:13:01;;;;;;;20.00;15.10;;;12.50;99.90;;;;;;5082443;28;20244;-76
2021/05/31 02:15:35;;;;;;;19.33;13.63;;;12.50;99.90;;;;;;5072078;28;20722;-76
2021/05/31 02:18:11;;;;;;;18.90;13.87;;;12.40;99.90;;;;;;5072255;28;20707;-76
2021/05/31 02:20:38;;;;;;;21.20;14.23;;;12.40;99.90;;;;;;5072083;28;20697;-77
2021/05/31 02:23:07;;;;;;;19.23;14.37;;;12.30;99.90;;;;;;5072453;28;20239;-77
2021/05/31 02:25:35;;;;;;;20.03;14.70;;;12.30;99.90;;;;;;5079812;28;20230;-77
2021/05/31 02:28:02;;;;;;;20.60;13.97;;;12.30;99.90;;;;;;5091547;28;20220;-77
2021/05/31 02:30:29;;;;;;;18.83;13.57;;;12.30;99.90;;;;;;5081737;28;20240;-77
2021/05/31 02:32:58;;;;;;;19.23;14.90;;;12.10;99.90;;;;;;5077058;28;20219;-77
2021/05/31 02:35:27;;;;;;;22.23;14.43;;;12.10;99.90;;;;;;5091472;28;20310;-77
2021/05/31 02:37:53;;;;;;;20.33;14.47;;;12.10;99.90;;;;;;5072182;28;20425;-76
2021/05/31 02:40:22;;;;;;;20.00;15.30;;;12.10;99.90;;;;;;5071918;28;20288;-76
2021/05/31 02:42:50;;;;;;;20.20;14.37;;;12.10;99.90;;;;;;5084777;28;20666;-76
2021/05/31 02:45:19;;;;;;;20.30;15.17;;;12.10;99.90;;;;;;5091271;28;20283;-76
2021/05/31 02:47:46;;;;;;;23.37;15.07;;;12.10;99.90;;;;;;5080435;28;20205;-76
2021/05/31 02:50:13;;;;;;;24.33;15.40;;;12.00;99.90;;;;;;5072200;28;20291;-77
2021/05/31 02:52:41;;;;;;;24.70;15.43;;;12.10;99.90;;;;;;5071462;28;20287;-76
2021/05/31 02:55:09;;;;;;;20.83;15.30;;;12.20;99.90;;;;;;5072147;28;20232;-76
2021/05/31 02:57:38;;;;;;;19.57;14.60;;;12.10;99.90;;;;;;5084978;28;20363;-76
2021/05/31 03:00:06;;;;;;;19.07;14.90;;;12.00;99.90;;;;;;5085774;28;20258;-76
2021/05/31 03:02:33;;;;;;;19.73;14.97;;;12.00;99.90;;;;;;5071664;28;20289;-76
2021/05/31 03:05:00;;;;;;;22.77;15.90;;;12.00;99.90;;;;;;5072520;28;20651;-76
2021/05/31 03:07:26;;;;;;;19.00;14.27;;;12.00;99.90;;;;;;5079577;28;20714;-78
2021/05/31 03:09:53;;;;;;;21.63;14.17;;;12.00;99.90;;;;;;5063134;28;20224;-76
2021/05/31 03:12:20;;;;;;;22.53;14.60;;;11.90;99.90;;;;;;5096180;28;20288;-76
2021/05/31 03:14:48;;;;;;;21.27;15.37;;;11.80;99.90;;;;;;5095668;28;20267;-76
2021/05/31 03:17:14;;;;;;;22.67;15.17;;;11.80;99.90;;;;;;5096175;28;20303;-76
2021/05/31 03:19:41;;;;;;;21.60;15.07;;;11.70;99.90;;;;;;5095703;28;20740;-76
2021/05/31 03:22:07;;;;;;;22.37;14.73;;;11.60;99.90;;;;;;5079800;28;20282;-76
2021/05/31 03:24:34;;;;;;;20.07;14.60;;;11.70;99.90;;;;;;5075515;28;20240;-77
2021/05/31 03:27:00;;;;;;;19.70;15.03;;;11.70;99.90;;;;;;5075647;28;20655;-76
2021/05/31 03:29:27;;;;;;;19.80;14.87;;;11.60;99.90;;;;;;5075424;28;20269;-77
2021/05/31 03:31:54;;;;;;;23.87;15.37;;;11.60;99.90;;;;;;5075461;28;20340;-76
2021/05/31 03:34:21;;;;;;;20.43;14.83;;;11.60;99.90;;;;;;5094606;28;20366;-76
2021/05/31 03:36:48;;;;;;;20.67;15.10;;;11.60;99.90;;;;;;5080415;28;20685;-76
2021/05/31 03:39:15;;;;;;;19.77;15.50;;;11.60;99.90;;;;;;5075032;28;20239;-77
2021/05/31 03:41:41;;;;;;;17.53;15.00;;;11.60;99.90;;;;;;5075518;28;20249;-76
2021/05/31 03:44:08;;;;;;;18.03;15.07;;;11.60;99.90;;;;;;5075998;28;20281;-76
2021/05/31 03:46:34;;;;;;;21.90;15.17;;;11.50;99.90;;;;;;5095475;28;20294;-77
2021/05/31 03:49:02;;;;;;;19.80;15.00;;;11.50;99.90;;;;;;5095265;28;20211;-76
2021/05/31 03:51:29;;;;;;;19.73;14.80;;;11.40;99.90;;;;;;5075057;28;20279;-76
2021/05/31 03:53:55;;;;;;;19.83;15.57;;;11.40;99.90;;;;;;5085834;28;20305;-76
2021/05/31 03:56:22;;;;;;;18.93;15.37;;;11.40;99.90;;;;;;5093150;28;20371;-76
2021/05/31 03:58:49;;;;;;;20.27;14.47;;;11.40;99.90;;;;;;5094238;28;20237;-76
2021/05/31 04:01:16;;;;;;;20.20;15.53;;;11.40;99.90;;;;;;5094614;28;20603;-76
2021/05/31 04:03:43;;;;;;;19.37;15.80;;;11.40;99.90;;;;;;5095102;28;20236;-77
2021/05/31 04:06:22;;;;;;;21.70;15.60;;;11.40;99.90;;;;;;5094845;28;20248;-77
2021/05/31 04:11:36;;;;;;;22.27;15.87;;;11.40;99.90;;;;;;5075354;28;20194;-76
2021/05/31 04:14:04;;;;;;;20.80;15.73;;;11.40;99.90;;;;;;5083894;28;20250;-77
2021/05/31 04:16:31;;;;;;;22.20;15.27;;;11.50;99.90;;;;;;5078607;28;20195;-77
2021/05/31 04:18:57;;;;;;;24.00;15.33;;;11.50;99.90;;;;;;5094832;28;20231;-77
2021/05/31 04:21:26;;;;;;;19.23;14.60;;;11.50;99.90;;;;;;5094744;28;20231;-76
2021/05/31 04:23:52;;;;;;;22.60;15.03;;;11.50;99.90;;;;;;5094640;28;20237;-76
2021/05/31 04:26:19;;;;;;;20.03;15.00;;;11.60;99.90;;;;;;5094890;28;20218;-77
2021/05/31 04:28:46;;;;;;;19.13;14.53;;;11.50;99.90;;;;;;5093535;28;20234;-77
2021/05/31 04:31:12;;;;;;;21.93;14.87;;;11.60;99.90;;;;;;5094538;28;20230;-77
2021/05/31 04:33:39;;;;;;;20.53;15.10;;;11.60;99.90;;;;;;5094247;28;20313;-77
2021/05/31 04:36:06;;;;;;;17.57;14.53;;;11.60;99.90;;;;;;5094420;28;20229;-77
2021/05/31 04:38:34;;;;;;;19.70;14.60;;;11.60;99.90;;;;;;5094264;28;20752;-77
2021/05/31 04:41:01;;;;;;;19.53;14.90;;;11.60;99.90;;;;;;5094812;28;20283;-77
2021/05/31 04:43:28;;;;;;;20.23;13.80;;;11.60;99.90;;;;;;5093857;28;20221;-77
2021/05/31 04:45:54;;;;;;;19.03;14.57;;;11.50;99.90;;;;;;5094312;28;20198;-77
2021/05/31 04:48:20;;;;;;;20.67;14.80;;;11.60;99.90;;;;;;5094399;28;20287;-76
2021/05/31 04:50:47;;;;;;;18.77;14.60;;;11.60;99.90;;;;;;5093983;28;20238;-77
2021/05/31 04:53:13;;;;;;;17.63;13.10;;;11.70;99.90;;;;;;5093449;28;20311;-76
2021/05/31 04:55:41;;;;;;;18.93;13.80;;;11.80;99.90;;;;;;5093869;28;20307;-76
2021/05/31 04:58:08;;;;;;;18.43;13.80;;;11.80;99.90;;;;;;5094146;28;20235;-77
2021/05/31 05:00:34;;;;;;;20.10;14.17;;;11.90;99.90;;;;;;5074079;28;20233;-76
2021/05/31 05:03:00;;;;;;;16.60;13.17;;;12.00;99.90;;;;;;5073849;28;20305;-76
2021/05/31 05:05:27;;;;;;;21.07;13.90;;;12.10;99.90;;;;;;5073430;28;20669;-76
2021/05/31 05:07:53;;;;;;;19.47;13.17;;;12.10;99.90;;;;;;5086021;28;20245;-78
2021/05/31 05:10:21;;;;;;;17.13;12.87;;;12.20;99.90;;;;;;5093533;28;20609;-79
2021/05/31 05:12:50;;;;;;;18.87;13.57;;;12.20;99.90;;;;;;5073662;28;20229;-78
2021/05/31 05:15:18;;;;;;;16.70;12.83;;;12.30;99.90;;;;;;5086421;28;20307;-78
2021/05/31 05:17:47;;;;;;;18.93;13.67;;;12.40;99.90;;;;;;5081878;28;20202;-77
2021/05/31 05:20:14;;;;;;;16.70;12.83;;;12.50;99.90;;;;;;5077865;28;20231;-77
2021/05/31 05:22:41;;;;;;;19.33;11.93;;;12.70;99.90;;;;;;5084777;28;20230;-77
2021/05/31 05:25:09;;;;;;;18.00;13.07;;;12.80;99.90;;;;;;5073377;28;20751;-77
2021/05/31 05:27:36;;;;;;;14.87;12.47;;;13.20;99.90;;;;;;5073143;28;20272;-78
2021/05/31 05:30:05;;;;;;;15.30;11.93;;;13.80;99.90;;;;;;5082552;28;20656;-78
2021/05/31 05:32:32;;;;;;;14.53;10.83;;;14.60;99.90;;;;;;5091191;28;20230;-77
2021/05/31 05:35:07;;;;;;;12.67;10.57;;;15.10;99.90;;;;;;5093117;28;20222;-78
2021/05/31 05:37:41;;;;;;;12.83;9.97;;;15.70;99.90;;;;;;5093370;28;20259;-77
2021/05/31 05:43:07;;;;;;;13.07;9.60;;;16.60;99.90;;;;;;5072046;28;20191;-78
2021/05/31 05:45:52;;;;;;;10.00;9.00;;;16.50;99.90;;;;;;5088265;28;20273;-78
2021/05/31 05:48:18;;;;;;;11.47;9.70;;;16.90;99.90;;;;;;5092789;28;20229;-79
2021/05/31 05:50:44;;;;;;;11.57;9.30;;;17.30;99.90;;;;;;5078591;28;20199;-79
2021/05/31 05:53:11;;;;;;;10.90;8.90;;;17.50;99.90;;;;;;5072495;28;20252;-78
2021/05/31 05:55:37;;;;;;;10.97;9.33;;;17.90;99.90;;;;;;5078294;28;20215;-79
2021/05/31 05:58:04;;;;;;;10.47;9.37;;;18.30;99.90;;;;;;5089213;28;20297;-77
2021/05/31 06:00:32;;;;;;;11.33;9.40;;;18.70;99.90;;;;;;5087200;28;20200;-78
2021/05/31 06:03:02;;;;;;;10.50;8.30;;;19.20;99.90;;;;;;5090380;28;20285;-77
2021/05/31 06:05:29;;;;;;;11.77;8.40;;;18.60;99.90;;;;;;5087113;28;20190;-78
2021/05/31 06:07:55;;;;;;;10.05;8.35;;;18.80;99.90;;;;;;5093601;28;20229;-77
2021/05/31 06:10:21;;;;;;;9.23;8.32;;;19.40;99.90;;;;;;5094015;28;20287;-78
2021/05/31 06:12:49;;;;;;;9.52;8.25;;;19.80;99.90;;;;;;5086046;28;20662;-78
2021/05/31 06:15:16;;;;;;;9.70;7.30;;;19.80;99.90;;;;;;5090972;28;20315;-77
2021/05/31 06:17:42;;;;;;;9.02;7.60;;;19.50;99.90;;;;;;5091816;28;20289;-77
2021/05/31 06:20:11;;;;;;;8.90;7.53;;;20.10;99.90;;;;;;5084146;28;20194;-78
2021/05/31 06:22:40;;;;;;;8.82;7.53;;;20.20;99.90;;;;;;5090035;28;20657;-77
2021/05/31 06:25:08;;;;;;;8.85;7.22;;;20.10;99.90;;;;;;5082507;28;20191;-77
2021/05/31 06:27:35;;;;;;;8.02;7.22;;;20.60;99.90;;;;;;5081832;28;20478;-77
2021/05/31 06:30:02;;;;;;;8.38;6.80;;;21.00;99.90;;;;;;5079043;28;20281;-77
2021/05/31 06:32:29;;;;;;;8.18;6.82;;;21.60;99.90;;;;;;5074259;28;21570;-78
2021/05/31 06:34:56;;;;;;;7.18;6.45;;;22.30;99.90;;;;;;5103272;28;20309;-78
2021/05/31 06:37:24;;;;;;;8.52;7.35;;;22.10;99.90;;;;;;5080369;28;20231;-77
2021/05/31 06:39:51;;;;;;;7.03;6.32;;;21.80;99.90;;;;;;5077026;28;20557;-77
2021/05/31 06:42:17;;;;;;;9.82;6.28;;;22.10;99.90;;;;;;5082641;28;20620;-78
2021/05/31 06:44:43;;;;;;;6.80;6.00;;;22.00;99.90;;;;;;5079610;28;20281;-77
2021/05/31 06:47:10;;;;;;;9.05;5.63;;;22.70;99.90;;;;;;5086751;28;20228;-77
2021/05/31 06:49:37;;;;;;;7.38;5.88;;;23.60;99.90;;;;;;5086387;28;20285;-77
2021/05/31 06:52:05;;;;;;;6.72;5.43;;;24.30;99.90;;;;;;5085475;28;20203;-78
2021/05/31 06:54:33;;;;;;;5.68;5.13;;;24.40;99.90;;;;;;5081028;28;20313;-77
2021/05/31 06:57:00;;;;;;;5.38;4.88;;;23.60;99.90;;;;;;5081428;28;20195;-78
2021/05/31 06:59:27;;;;;;;5.65;5.15;;;23.60;99.90;;;;;;5084902;28;20186;-77
2021/05/31 07:01:53;;;;;;;4.93;4.53;;;23.90;99.90;;;;;;5081195;28;20932;-78
2021/05/31 07:04:19;;;;;;;6.45;4.78;;;23.50;99.90;;;;;;5084808;28;20269;-78
2021/05/31 07:06:47;;;;;;;5.82;4.65;;;23.60;99.90;;;;;;5085132;28;20244;-78
2021/05/31 07:09:14;;;;;;;4.68;4.28;;;23.60;99.90;;;;;;5087537;28;20198;-77
2021/05/31 07:11:45;;;;;;;6.75;4.57;;;23.50;99.90;;;;;;5077351;28;20290;-76
2021/05/31 07:14:17;;;;;;;4.80;4.18;;;23.80;99.90;;;;;;5083759;28;20214;-78
2021/05/31 07:16:44;;;;;;;4.65;4.15;;;23.70;99.90;;;;;;5086940;28;20312;-78
2021/05/31 07:19:11;;;;;;;5.05;4.55;;;24.20;99.90;;;;;;5088582;28;20616;-78
2021/05/31 07:21:39;;;;;;;6.18;4.55;;;24.30;99.90;;;;;;5077320;28;20297;-78
2021/05/31 07:24:08;;;;;;;4.05;3.65;;;23.80;99.90;;;;;;5077382;28;20687;-78
2021/05/31 07:26:34;;;;;;;4.40;4.00;;;23.80;99.90;;;;;;5077151;28;20607;-78
2021/05/31 07:29:03;;;;;;;5.00;3.90;;;23.70;99.90;;;;;;5081595;28;20199;-78
2021/05/31 07:31:29;;;;;;;4.47;4.07;;;23.60;99.90;;;;;;5077541;28;20289;-78
2021/05/31 07:33:55;;;;;;;5.30;4.00;;;24.00;99.90;;;;;;5079788;28;20246;-78
2021/05/31 07:36:22;;;;;;;4.50;3.75;;;23.60;99.90;;;;;;5084928;28;20399;-78
2021/05/31 07:38:50;;;;;;;4.13;3.72;;;23.50;99.90;;;;;;5082341;28;20747;-78
2021/05/31 07:41:16;;;;;;;4.63;3.92;;;24.10;99.90;;;;;;5079298;28;20203;-78
2021/05/31 07:43:43;;;;;;;4.18;3.78;;;24.60;99.90;;;;;;5088154;28;20222;-79
2021/05/31 07:46:12;;;;;;;4.00;3.63;;;25.20;99.90;;;;;;5075756;28;20290;-78
2021/05/31 07:48:39;;;;;;;4.13;3.72;;;25.30;99.90;;;;;;5086211;28;20191;-78
2021/05/31 07:51:15;;;;;;;5.97;4.00;;;24.80;99.90;;;;;;5076148;28;20654;-78
2021/05/31 07:53:42;;;;;;;4.00;3.60;;;25.70;99.90;;;;;;5081171;28;20206;-79
2021/05/31 07:56:09;;;;;;;5.00;3.65;;;25.50;99.90;;;;;;5088887;28;20348;-78
2021/05/31 07:58:36;;;;;;;9.25;3.85;;;26.20;99.90;;;;;;5089621;28;20226;-79
2021/05/31 08:01:03;;;;;;;4.95;3.50;;;25.20;99.90;;;;;;5085071;28;20207;-77
2021/05/31 08:03:31;;;;;;;3.58;3.28;;;26.10;99.90;;;;;;5086145;28;20321;-79
2021/05/31 08:05:58;;;;;;;3.95;3.50;;;25.50;99.90;;;;;;5087996;28;20196;-80
2021/05/31 08:08:25;;;;;;;4.47;3.67;;;26.10;99.90;;;;;;5090861;28;20712;-78
2021/05/31 08:10:52;;;;;;;3.63;3.33;;;26.40;99.90;;;;;;5083335;28;20218;-78
2021/05/31 08:13:18;;;;;;;5.35;3.17;;;26.90;99.90;;;;;;5083454;28;20632;-77
2021/05/31 08:15:45;;;;;;;3.83;3.35;;;26.70;99.90;;;;;;5077961;28;20243;-77
2021/05/31 08:18:11;;;;;;;3.83;3.47;;;27.00;99.90;;;;;;5089915;28;20240;-79
2021/05/31 08:20:42;;;;;;;5.28;3.85;;;26.20;99.90;;;;;;5086730;28;20237;-77
2021/05/31 08:23:08;;;;;;;4.07;3.53;;;25.50;99.90;;;;;;5093125;28;20198;-81
2021/05/31 08:25:35;;;;;;;3.40;3.10;;;25.30;99.90;;;;;;5078868;28;20230;-80
2021/05/31 08:28:03;;;;;;;4.55;3.38;;;25.60;99.90;;;;;;5089989;28;20250;-82
2021/05/31 08:30:31;;;;;;;3.35;3.05;;;26.50;99.80;;;;;;5087361;28;20198;-82
2021/05/31 08:32:57;;;;;;;3.45;3.15;;;27.10;99.20;;;;;;5082262;28;20585;-82
2021/05/31 08:35:24;;;;;;;3.35;2.95;;;28.30;99.10;;;;;;5087957;28;20222;-82
2021/05/31 08:37:52;;;;;;;6.10;3.80;;;28.60;96.10;;;;;;5085301;28;20237;-82
2021/05/31 08:40:18;;;;;;;4.35;3.58;;;27.00;99.80;;;;;;5089156;28;20245;-82
2021/05/31 08:42:46;;;;;;;3.72;3.30;;;27.40;96.70;;;;;;5090758;28;20225;-82
2021/05/31 08:45:14;;;;;;;4.05;3.65;;;27.90;94.80;;;;;;5087334;28;20186;-82
2021/05/31 08:47:43;;;;;;;4.55;3.85;;;28.00;96.10;;;;;;5082904;28;20195;-82
2021/05/31 08:50:12;;;;;;;4.40;3.78;;;27.80;99.10;;;;;;5084528;28;20195;-82
2021/05/31 08:52:39;;;;;;;4.03;3.30;;;28.30;98.10;;;;;;5084177;28;20261;-82
2021/05/31 08:55:09;;;;;;;3.70;3.40;;;27.30;94.30;;;;;;5080964;28;20248;-83
2021/05/31 08:57:36;;;;;;;3.90;3.10;;;28.10;94.10;;;;;;5090793;28;20650;-82
2021/05/31 09:00:03;;;;;;;3.95;3.50;;;28.50;93.60;;;;;;5079925;28;20289;-83
2021/05/31 09:02:33;;;;;;;4.20;3.33;;;29.00;90.20;;;;;;5091300;28;20191;-82
2021/05/31 09:05:00;;;;;;;4.55;3.42;;;28.20;90.60;;;;;;5073003;28;20572;-82
2021/05/31 09:07:26;;;;;;;3.80;3.40;;;28.50;91.30;;;;;;5085961;28;20237;-83
2021/05/31 09:09:54;;;;;;;4.82;3.67;;;27.90;92.30;;;;;;5085365;28;20254;-82
2021/05/31 09:12:27;;;;;;;3.58;3.28;;;28.00;92.80;;;;;;5077274;28;20278;-83
2021/05/31 09:14:55;;;;;;;4.05;3.13;;;29.00;92.80;;;;;;5086223;28;20267;-82
2021/05/31 09:17:26;;;;;;;4.57;3.70;;;28.70;88.80;;;;;;5079647;28;20229;-82
2021/05/31 09:19:53;;;;;;;4.05;3.25;;;28.70;91.20;;;;;;5081942;28;20198;-82
2021/05/31 09:22:19;;;;;;;6.78;3.70;;;29.40;87.00;;;;;;5090519;28;20198;-82
2021/05/31 09:25:05;;;;;;;3.80;3.50;;;29.40;87.30;;;;;;5088795;28;20229;-83
2021/05/31 09:27:33;;;;;;;6.43;3.85;;;29.10;90.60;;;;;;5085121;28;20803;-83
2021/05/31 09:30:00;;;;;;;4.40;3.40;;;29.00;90.60;;;;;;5088325;28;20244;-82
2021/05/31 09:32:27;;;;;;;4.15;3.00;;;29.30;86.30;;;;;;5081936;28;20670;-82
2021/05/31 09:35:01;;;;;;;4.32;3.42;;;28.60;91.40;;;;;;5079758;28;20211;-82
2021/05/31 09:37:29;;;;;;;3.70;3.33;;;28.30;86.80;;;;;;5083715;28;20199;-82
2021/05/31 09:40:00;;;;;;;4.43;3.15;;;29.30;89.20;;;;;;5076377;28;20256;-82
2021/05/31 09:42:27;;;;;;;5.50;3.45;;;28.00;84.10;;;;;;5079279;28;20194;-82
2021/05/31 09:45:01;;;;;;;4.32;3.35;;;27.60;86.30;;;;;;5085108;28;20237;-82
2021/05/31 09:47:29;;;;;;;3.65;3.13;;;27.80;87.60;;;;;;5083297;28;20267;-82
2021/05/31 09:49:56;;;;;;;4.82;3.40;;;28.20;85.70;;;;;;5085734;28;20225;-82
2021/05/31 09:52:22;;;;;;;3.47;3.17;;;28.60;85.70;;;;;;5094410;28;20280;-82
2021/05/31 09:54:50;;;;;;;5.20;3.30;;;28.10;88.40;;;;;;5088570;28;20257;-82
2021/05/31 09:57:20;;;;;;;4.10;3.20;;;28.70;88.60;;;;;;5082619;28;20281;-82
2021/05/31 09:59:48;;;;;;;3.60;3.30;;;30.10;88.90;;;;;;5078355;28;20203;-82
2021/05/31 10:02:23;;;;;;;3.92;3.40;;;28.80;84.20;;;;;;5083134;28;20669;-83
2021/05/31 10:04:58;;;;;;;4.63;3.50;;;28.40;84.70;;;;;;5086893;28;20710;-82
2021/05/31 10:07:37;;;;;;;3.72;3.30;;;28.40;85.40;;;;;;5077867;28;20204;-82
2021/05/31 10:10:05;;;;;;;3.45;3.15;;;28.70;85.60;;;;;;5087319;28;20202;-82
2021/05/31 10:12:32;;;;;;;4.38;3.97;;;29.30;85.50;;;;;;5072295;28;20235;-82
2021/05/31 10:14:59;;;;;;;7.05;3.50;;;28.50;83.40;;;;;;5084356;28;20768;-82
2021/05/31 10:17:27;;;;;;;4.32;3.30;;;28.70;86.30;;;;;;5082315;28;20327;-82
2021/05/31 10:19:55;;;;;;;3.60;3.30;;;28.50;85.00;;;;;;5081350;28;20290;-83
2021/05/31 10:22:22;;;;;;;4.57;3.47;;;29.80;85.30;;;;;;5078288;28;20225;-82
2021/05/31 10:24:49;;;;;;;3.35;3.05;;;28.70;87.70;;;;;;5081707;28;20235;-82
2021/05/31 10:27:17;;;;;;;4.50;3.15;;;30.40;91.70;;;;;;5073446;28;20226;-83
2021/05/31 10:29:45;;;;;;;4.05;3.45;;;28.40;81.90;;;;;;5088407;28;20219;-83
2021/05/31 10:32:12;;;;;;;3.88;3.40;;;27.60;84.00;;;;;;5083843;28;20696;-83
2021/05/31 10:35:14;;;;;;;3.80;3.40;;;28.00;86.40;;;;;;5072318;28;20249;-83
2021/05/31 10:37:41;;;;;;;3.47;3.13;;;29.70;84.10;;;;;;5078740;28;20241;-83
2021/05/31 10:40:10;;;;;;;4.18;3.30;;;28.70;82.30;;;;;;5076640;28;20651;-82
2021/05/31 10:42:42;;;;;;;4.35;3.28;;;28.90;80.80;;;;;;5084825;28;20198;-82
2021/05/31 10:45:27;;;;;;;3.42;3.20;;;28.50;88.10;;;;;;5060739;28;20712;-82
2021/05/31 10:47:59;;;;;;;3.75;2.90;;;28.10;90.20;;;;;;5079708;28;20221;-81
2021/05/31 10:50:35;;;;;;;3.30;2.97;;;28.80;82.30;;;;;;5081058;28;20199;-82
2021/05/31 10:53:02;;;;;;;3.00;2.75;;;29.50;78.20;;;;;;5085317;28;20199;-82
2021/05/31 10:55:28;;;;;;;4.53;2.80;;;29.20;75.50;;;;;;5078809;28;20737;-83
2021/05/31 10:57:57;;;;;;;3.10;2.85;;;30.30;75.20;;;;;;5080913;28;20199;-81
2021/05/31 11:00:25;;;;;;;3.53;3.20;;;30.40;76.00;;;;;;5089353;28;20202;-83
2021/05/31 11:03:03;;;;;;;5.03;3.40;;;30.80;76.50;;;;;;5082504;28;20283;-82
2021/05/31 11:05:33;;;;;;;5.03;3.67;;;29.30;77.60;;;;;;5083695;28;20223;-82
2021/05/31 11:08:00;;;;;;;3.80;3.50;;;29.10;84.30;;;;;;5081131;28;20221;-83
2021/05/31 11:10:30;;;;;;;3.15;2.85;;;27.80;83.00;;;;;;5082635;28;20206;-81
2021/05/31 11:13:08;;;;;;;3.65;3.35;;;28.60;84.40;;;;;;5078795;28;20202;-82
2021/05/31 11:15:35;;;;;;;4.70;3.20;;;29.40;83.20;;;;;;5076638;28;20305;-83
2021/05/31 11:18:03;;;;;;;3.80;3.03;;;30.50;84.00;;;;;;5084286;28;20198;-83
2021/05/31 11:20:32;;;;;;;3.47;3.10;;;29.30;75.70;;;;;;5073239;28;20206;-84
2021/05/31 11:23:01;;;;;;;4.38;3.20;;;28.20;75.00;;;;;;5085048;28;20222;-82
2021/05/31 11:25:29;;;;;;;3.53;3.22;;;28.80;81.20;;;;;;5079206;28;20674;-83
2021/05/31 11:27:57;;;;;;;3.33;2.97;;;29.00;78.30;;;;;;5085906;28;20218;-82
2021/05/31 11:30:26;;;;;;;4.25;3.35;;;28.20;81.40;;;;;;5084778;28;20195;-82
2021/05/31 11:32:54;;;;;;;3.22;2.95;;;28.80;80.70;;;;;;5085811;28;20207;-82
2021/05/31 11:35:22;;;;;;;3.38;2.92;;;29.40;77.40;;;;;;5091319;28;20643;-83
2021/05/31 11:37:51;;;;;;;3.92;3.10;;;30.00;77.10;;;;;;5088012;28;20265;-82
2021/05/31 11:40:24;;;;;;;4.22;2.92;;;30.90;78.60;;;;;;5087090;28;20230;-82
2021/05/31 11:42:53;;;;;;;4.40;2.88;;;29.40;78.50;;;;;;5084567;28;20210;-82
2021/05/31 11:45:20;;;;;;;3.50;3.20;;;29.60;86.10;;;;;;5080811;28;20281;-83
2021/05/31 11:47:54;;;;;;;2.95;2.75;;;30.80;81.40;;;;;;5091613;28;20198;-82
2021/05/31 11:50:22;;;;;;;3.08;2.78;;;30.70;75.20;;;;;;5085372;28;20398;-82
2021/05/31 11:52:50;;;;;;;3.28;2.80;;;30.50;74.10;;;;;;5089455;28;21024;-82
2021/05/31 11:55:19;;;;;;;3.22;2.88;;;30.10;71.70;;;;;;5091691;28;20262;-83
2021/05/31 11:57:46;;;;;;;3.08;2.55;;;29.20;75.30;;;;;;5091905;28;20205;-82
2021/05/31 12:00:18;;;;;;;2.92;2.70;;;30.40;74.00;;;;;;5082753;28;20206;-82
2021/05/31 12:02:44;;;;;;;3.10;2.80;;;29.20;72.30;;;;;;5080519;28;20210;-82
2021/05/31 12:05:12;;;;;;;4.13;2.63;;;29.40;72.40;;;;;;5078614;28;20206;-83
2021/05/31 12:07:43;;;;;;;3.97;2.45;;;29.50;78.60;;;;;;5077253;28;20573;-83
2021/05/31 12:10:13;;;;;;;3.67;2.50;;;30.00;70.60;;;;;;5082603;28;20580;-81
2021/05/31 12:12:40;;;;;;;2.83;2.40;;;29.80;69.80;;;;;;5082836;28;20199;-83
2021/05/31 12:15:12;;;;;;;2.80;2.60;;;29.30;71.10;;;;;;5083855;28;20214;-83
2021/05/31 12:17:39;;;;;;;3.50;2.80;;;29.80;72.00;;;;;;5084213;28;20199;-83
2021/05/31 12:20:08;;;;;;;3.60;2.80;;;30.40;70.90;;;;;;5078606;28;20762;-83
2021/05/31 12:22:37;;;;;;;2.67;2.47;;;30.40;75.40;;;;;;5089986;28;20205;-83
2021/05/31 12:25:07;;;;;;;3.67;2.65;;;31.10;70.60;;;;;;5087280;28;20230;-84
2021/05/31 12:27:37;;;;;;;4.95;2.40;;;30.30;69.30;;;;;;5085733;28;20277;-83
2021/05/31 12:30:06;;;;;;;3.95;3.33;;;29.20;72.90;;;;;;5079209;28;20225;-83
2021/05/31 12:32:33;;;;;;;4.00;2.55;;;28.00;74.70;;;;;;5088055;28;20206;-83
2021/05/31 12:35:01;;;;;;;4.57;2.55;;;29.10;74.80;;;;;;5084820;28;20215;-83
2021/05/31 12:37:30;;;;;;;3.40;2.50;;;30.00;76.10;;;;;;5087710;28;20190;-83
2021/05/31 12:39:57;;;;;;;2.78;2.47;;;29.40;77.00;;;;;;5084572;28;20406;-83
2021/05/31 12:42:27;;;;;;;3.22;2.90;;;30.60;75.10;;;;;;5083891;28;20222;-83
2021/05/31 12:45:03;;;;;;;3.47;2.70;;;28.50;73.80;;;;;;5086561;28;20190;-83
2021/05/31 12:47:35;;;;;;;3.08;2.70;;;29.30;76.50;;;;;;5077837;28;20194;-83
2021/05/31 12:50:05;;;;;;;2.40;2.20;;;29.70;75.20;;;;;;5084095;28;20234;-83